Time;durP1;ratioP1;P1;durP2;ratioP2;P2;SDS_P1;SDS_P2;PMS_P1;PMS_P2;Temp;Humidity;BMP_temperature;BMP_pressure;BME280_temperature;BME280_humidity;BME280_pressure;Samples;Min_cycle;Max_cycle;Signal;HPM_P1;HPM_P2
2022/09/24 00:01:11;;;;;;;37.35;21.70;;;14.30;99.90;;;;;;4971971;28;20027;-76
2022/09/24 00:03:38;;;;;;;36.20;20.73;;;14.30;99.90;;;;;;4963132;28;20055;-76
2022/09/24 00:06:06;;;;;;;37.13;21.27;;;14.40;99.90;;;;;;4971414;28;20041;-77
2022/09/24 00:08:32;;;;;;;30.42;20.10;;;14.40;99.90;;;;;;4969811;28;20027;-75
2022/09/24 00:11:02;;;;;;;30.48;20.48;;;14.40;99.90;;;;;;4969685;28;20115;-76
2022/09/24 00:13:30;;;;;;;32.53;21.02;;;14.40;99.90;;;;;;4964934;28;20159;-76
2022/09/24 00:16:02;;;;;;;32.90;19.75;;;14.50;99.90;;;;;;4961094;28;20030;-75
2022/09/24 00:18:28;;;;;;;31.73;18.40;;;14.50;99.90;;;;;;4966951;28;20027;-76
2022/09/24 00:20:54;;;;;;;28.02;18.08;;;14.60;99.90;;;;;;4962314;28;20035;-76
2022/09/24 00:23:22;;;;;;;31.55;18.35;;;14.50;99.90;;;;;;4960796;28;20031;-75
2022/09/24 00:28:32;;;;;;;29.02;17.65;;;14.60;99.90;;;;;;4961126;28;20166;-75
2022/09/24 00:31:03;;;;;;;26.90;15.35;;;14.60;99.90;;;;;;4961858;28;20110;-75
2022/09/24 00:33:28;;;;;;;29.00;16.85;;;14.70;99.90;;;;;;4967662;28;20101;-75
2022/09/24 00:36:04;;;;;;;26.38;16.67;;;14.70;99.90;;;;;;4964245;28;20055;-75
2022/09/24 00:38:31;;;;;;;25.40;14.88;;;14.70;99.90;;;;;;4963785;28;20053;-74
2022/09/24 00:40:58;;;;;;;24.67;16.58;;;14.70;99.90;;;;;;4962669;28;20020;-75
2022/09/24 00:43:36;;;;;;;24.98;15.20;;;14.70;99.90;;;;;;4962641;28;20444;-75
2022/09/24 00:46:14;;;;;;;22.63;13.85;;;14.70;99.90;;;;;;4963602;28;20035;-76
2022/09/24 00:48:42;;;;;;;22.30;14.75;;;14.70;99.90;;;;;;4963290;28;20027;-74
2022/09/24 00:51:11;;;;;;;24.55;14.63;;;14.60;99.90;;;;;;4968554;28;20023;-74
2022/09/24 00:53:37;;;;;;;22.58;14.45;;;14.50;99.90;;;;;;4961142;28;20613;-74
2022/09/24 00:56:07;;;;;;;24.83;15.05;;;14.50;99.90;;;;;;4961883;28;20171;-74
2022/09/24 00:58:34;;;;;;;25.38;15.20;;;14.50;99.90;;;;;;4963872;28;20367;-74
2022/09/24 01:01:09;;;;;;;27.10;15.27;;;14.50;99.90;;;;;;4965064;28;20302;-75
2022/09/24 01:03:39;;;;;;;28.60;15.25;;;14.50;99.90;;;;;;4958621;28;20043;-74
2022/09/24 01:06:09;;;;;;;26.77;16.17;;;14.50;99.90;;;;;;4963435;28;20019;-75
2022/09/24 01:08:35;;;;;;;27.60;15.70;;;14.50;99.90;;;;;;4965627;28;20531;-75
2022/09/24 01:11:19;;;;;;;28.80;15.40;;;14.50;99.90;;;;;;4967619;28;20061;-74
2022/09/24 01:13:59;;;;;;;22.08;14.43;;;14.50;99.90;;;;;;4980427;28;20379;-75
2022/09/24 01:16:29;;;;;;;20.92;14.30;;;14.40;99.90;;;;;;4970111;28;20038;-75
2022/09/24 01:18:56;;;;;;;28.15;15.52;;;14.30;99.90;;;;;;4971623;28;20031;-74
2022/09/24 01:21:55;;;;;;;25.48;14.50;;;14.40;99.90;;;;;;4967569;28;20114;-75
2022/09/24 01:24:27;;;;;;;22.83;14.63;;;14.40;99.90;;;;;;4960742;28;20042;-75
2022/09/24 01:27:01;;;;;;;25.80;14.38;;;14.40;99.90;;;;;;4963529;28;20030;-74
2022/09/24 01:29:57;;;;;;;25.90;15.95;;;14.50;99.90;;;;;;4968142;28;20073;-74
2022/09/24 01:32:38;;;;;;;26.95;15.18;;;14.50;99.90;;;;;;4977555;28;20104;-75
2022/09/24 01:35:23;;;;;;;27.10;15.55;;;14.50;99.90;;;;;;4967848;28;20023;-74
2022/09/24 01:37:54;;;;;;;31.95;16.30;;;14.50;99.90;;;;;;4965623;28;20102;-75
2022/09/24 01:40:23;;;;;;;30.27;17.73;;;14.40;99.90;;;;;;4963962;28;20038;-74
2022/09/24 01:42:50;;;;;;;26.45;16.80;;;14.40;99.90;;;;;;4969987;28;20035;-74
2022/09/24 01:45:17;;;;;;;29.23;16.90;;;14.50;99.90;;;;;;4962452;28;20082;-75
2022/09/24 01:47:44;;;;;;;27.48;16.48;;;14.50;99.90;;;;;;4967013;28;20041;-75
2022/09/24 01:50:15;;;;;;;25.27;16.17;;;14.50;99.90;;;;;;4969560;28;20443;-74
2022/09/24 01:52:52;;;;;;;27.75;16.73;;;14.50;99.90;;;;;;4965049;28;20051;-74
2022/09/24 01:55:24;;;;;;;28.02;15.43;;;14.50;99.90;;;;;;4949112;28;20118;-75
2022/09/24 01:58:15;;;;;;;23.45;15.68;;;14.50;99.90;;;;;;4962071;28;20146;-74
2022/09/24 02:00:47;;;;;;;28.30;16.88;;;14.40;99.90;;;;;;4966756;28;20181;-74
2022/09/24 02:03:17;;;;;;;25.40;15.75;;;14.40;99.90;;;;;;4966349;28;20090;-75
2022/09/24 02:05:57;;;;;;;31.55;16.33;;;14.30;99.90;;;;;;4967088;28;20030;-74
2022/09/24 02:08:32;;;;;;;26.80;16.60;;;14.30;99.90;;;;;;4963639;28;20046;-74
2022/09/24 02:11:10;;;;;;;32.25;17.75;;;14.30;99.90;;;;;;4960734;28;20082;-75
2022/09/24 02:13:45;;;;;;;29.63;17.60;;;14.30;99.90;;;;;;4964621;28;20110;-75
2022/09/24 02:16:15;;;;;;;28.50;16.33;;;14.20;99.90;;;;;;4966647;28;20027;-75
2022/09/24 02:18:46;;;;;;;29.88;17.48;;;14.30;99.90;;;;;;4966902;28;20063;-73
2022/09/24 02:21:19;;;;;;;29.95;17.58;;;14.30;99.90;;;;;;4962408;28;20038;-74
2022/09/24 02:24:09;;;;;;;27.50;17.20;;;14.30;99.90;;;;;;4959540;28;20034;-75
2022/09/24 02:26:34;;;;;;;29.73;17.58;;;14.30;99.90;;;;;;4965027;28;20035;-74
2022/09/24 02:29:00;;;;;;;30.13;17.75;;;14.30;99.90;;;;;;4969065;28;20023;-74
2022/09/24 02:31:32;;;;;;;27.88;17.58;;;14.30;99.90;;;;;;4961943;28;20038;-74
2022/09/24 02:34:22;;;;;;;29.03;17.93;;;14.40;99.90;;;;;;4966136;28;20022;-74
2022/09/24 02:36:58;;;;;;;31.25;19.35;;;14.40;99.90;;;;;;4960098;28;20096;-74
2022/09/24 02:39:24;;;;;;;30.90;17.13;;;14.40;99.90;;;;;;4969584;28;20037;-74
2022/09/24 02:41:52;;;;;;;31.90;18.35;;;14.40;99.90;;;;;;4969854;28;20035;-74
2022/09/24 02:44:19;;;;;;;29.92;17.92;;;14.50;99.90;;;;;;4963001;28;20050;-74
2022/09/24 02:46:45;;;;;;;33.05;18.45;;;14.40;99.90;;;;;;4963787;28;20062;-76
2022/09/24 02:49:14;;;;;;;29.58;18.58;;;14.40;99.90;;;;;;4963870;28;20451;-74
2022/09/24 02:51:41;;;;;;;30.15;19.08;;;14.50;99.90;;;;;;4962182;28;20055;-74
2022/09/24 02:54:07;;;;;;;35.92;19.58;;;14.50;99.90;;;;;;4962260;28;20025;-74
2022/09/24 02:56:33;;;;;;;30.80;19.50;;;14.50;99.90;;;;;;4962859;28;20023;-74
2022/09/24 02:59:02;;;;;;;30.45;19.77;;;14.50;99.90;;;;;;4966807;28;20054;-74
2022/09/24 03:01:31;;;;;;;36.67;20.15;;;14.50;99.90;;;;;;4963340;28;20027;-74
2022/09/24 03:03:59;;;;;;;36.75;21.27;;;14.50;99.90;;;;;;4962486;28;20058;-74
2022/09/24 03:06:27;;;;;;;35.55;20.73;;;14.50;99.90;;;;;;4969811;28;20035;-75
2022/09/24 03:08:53;;;;;;;35.63;21.67;;;14.50;99.90;;;;;;4958665;28;20041;-76
2022/09/24 03:11:24;;;;;;;33.10;21.30;;;14.50;99.90;;;;;;4964771;28;20027;-74
2022/09/24 03:13:50;;;;;;;37.38;21.77;;;14.50;99.90;;;;;;4970433;28;20058;-74
2022/09/24 03:16:16;;;;;;;34.92;21.17;;;14.50;99.90;;;;;;4959290;28;20040;-74
2022/09/24 03:18:45;;;;;;;35.22;21.55;;;14.50;99.90;;;;;;4960677;28;20025;-74
2022/09/24 03:21:12;;;;;;;36.92;21.60;;;14.50;99.90;;;;;;4960723;28;20015;-74
2022/09/24 03:23:39;;;;;;;35.22;21.05;;;14.60;99.90;;;;;;4963901;28;20042;-74
2022/09/24 03:26:05;;;;;;;33.00;21.13;;;14.60;99.90;;;;;;4965521;28;20230;-73
2022/09/24 03:28:31;;;;;;;38.20;23.35;;;14.60;99.90;;;;;;4961720;28;20454;-74
2022/09/24 03:30:59;;;;;;;35.13;20.92;;;14.60;99.90;;;;;;4971127;28;20058;-73
2022/09/24 03:33:43;;;;;;;33.72;21.42;;;14.60;99.90;;;;;;4959833;28;20373;-73
2022/09/24 03:36:09;;;;;;;39.78;22.00;;;14.60;99.90;;;;;;4955254;28;20066;-73
2022/09/24 03:38:35;;;;;;;38.28;21.55;;;14.60;99.90;;;;;;4968529;28;20067;-73
2022/09/24 03:41:02;;;;;;;34.88;21.20;;;14.50;99.90;;;;;;4960675;28;20042;-73
2022/09/24 03:43:31;;;;;;;36.95;21.67;;;14.60;99.90;;;;;;4962274;28;20026;-74
2022/09/24 03:45:59;;;;;;;36.03;21.05;;;14.60;99.90;;;;;;4960598;28;20035;-75
2022/09/24 03:48:25;;;;;;;33.15;21.85;;;14.60;99.90;;;;;;4967376;28;20027;-74
2022/09/24 03:50:52;;;;;;;35.70;21.70;;;14.60;99.90;;;;;;4967782;28;20031;-74
2022/09/24 03:53:19;;;;;;;34.60;21.95;;;14.60;99.90;;;;;;4963322;28;20460;-74
2022/09/24 03:56:04;;;;;;;37.38;22.77;;;14.60;99.90;;;;;;4959897;28;20058;-73
2022/09/24 03:58:31;;;;;;;40.42;23.33;;;14.60;99.90;;;;;;4961892;28;20019;-74
2022/09/24 04:00:57;;;;;;;38.05;23.52;;;14.60;99.90;;;;;;4962775;28;20041;-74
2022/09/24 04:03:25;;;;;;;38.92;22.95;;;14.70;99.90;;;;;;4964857;28;20030;-73
2022/09/24 04:05:51;;;;;;;41.83;24.45;;;14.60;99.90;;;;;;4969880;28;20463;-74
2022/09/24 04:08:20;;;;;;;38.05;23.45;;;14.70;99.90;;;;;;4962291;28;20490;-74
2022/09/24 04:10:47;;;;;;;38.20;23.40;;;14.70;99.90;;;;;;4963026;28;20039;-74
2022/09/24 04:13:16;;;;;;;43.35;23.27;;;14.60;99.90;;;;;;4963491;28;20026;-74
2022/09/24 04:15:49;;;;;;;40.20;24.23;;;14.70;99.90;;;;;;4968967;28;20027;-74
2022/09/24 04:18:15;;;;;;;40.75;24.25;;;14.70;99.90;;;;;;4966026;28;20356;-74
2022/09/24 04:20:41;;;;;;;41.53;24.08;;;14.60;99.90;;;;;;4965756;28;20126;-74
2022/09/24 04:23:07;;;;;;;39.50;24.67;;;14.60;99.90;;;;;;4965139;28;20109;-74
2022/09/24 04:25:36;;;;;;;41.38;24.77;;;14.60;99.90;;;;;;4963465;28;20071;-73
2022/09/24 04:28:06;;;;;;;43.00;24.60;;;14.60;99.90;;;;;;4964801;28;20038;-74
2022/09/24 04:30:32;;;;;;;39.15;24.73;;;14.60;99.90;;;;;;4965880;28;20059;-74
2022/09/24 04:32:59;;;;;;;44.80;25.88;;;14.60;99.90;;;;;;4965837;28;20025;-74
2022/09/24 04:35:26;;;;;;;42.72;26.17;;;14.60;99.90;;;;;;4960842;28;20509;-74
2022/09/24 04:37:52;;;;;;;46.60;25.40;;;14.60;99.90;;;;;;4966103;28;20114;-73
2022/09/24 04:40:20;;;;;;;43.22;24.65;;;14.60;99.90;;;;;;4961197;28;20118;-74
2022/09/24 04:42:46;;;;;;;39.03;24.58;;;14.60;99.90;;;;;;4961479;28;20122;-74
2022/09/24 04:45:12;;;;;;;48.47;27.10;;;14.70;99.90;;;;;;4970743;28;20110;-74
2022/09/24 04:47:39;;;;;;;41.97;25.60;;;14.70;99.90;;;;;;4967346;28;20543;-74
2022/09/24 04:50:08;;;;;;;42.33;26.10;;;14.60;99.90;;;;;;4966839;28;20030;-76
2022/09/24 04:52:34;;;;;;;42.70;25.55;;;14.60;99.90;;;;;;4971228;28;20022;-74
2022/09/24 04:55:00;;;;;;;44.85;25.75;;;14.50;99.90;;;;;;4971036;28;20085;-75
2022/09/24 04:57:27;;;;;;;47.97;28.25;;;14.50;99.90;;;;;;4967884;28;20090;-73
2022/09/24 04:59:53;;;;;;;42.28;25.98;;;14.50;99.90;;;;;;4968173;28;20034;-75
2022/09/24 05:02:19;;;;;;;45.90;27.25;;;14.50;99.90;;;;;;4964190;28;20026;-74
2022/09/24 05:04:45;;;;;;;45.92;26.77;;;14.50;99.90;;;;;;4968397;28;20037;-75
2022/09/24 05:07:12;;;;;;;48.25;27.73;;;14.50;99.90;;;;;;4964146;28;20023;-75
2022/09/24 05:09:38;;;;;;;44.28;26.17;;;14.50;99.90;;;;;;4968495;28;20027;-75
2022/09/24 05:12:04;;;;;;;51.45;29.63;;;14.60;99.90;;;;;;4970157;28;20035;-75
2022/09/24 05:14:30;;;;;;;49.47;27.30;;;14.60;99.90;;;;;;4970770;28;20022;-74
2022/09/24 05:16:58;;;;;;;43.95;27.00;;;14.60;99.90;;;;;;4970788;28;20479;-75
2022/09/24 05:19:23;;;;;;;50.58;28.75;;;14.60;99.90;;;;;;4961025;28;20477;-75
2022/09/24 05:21:52;;;;;;;49.65;28.65;;;14.60;99.90;;;;;;4963537;28;20085;-75
2022/09/24 05:24:21;;;;;;;45.10;27.00;;;14.60;99.90;;;;;;4964298;28;20027;-74
2022/09/24 05:29:35;;;;;;;44.97;26.25;;;14.50;99.90;;;;;;4965593;28;20099;-76
2022/09/24 05:32:06;;;;;;;52.58;27.50;;;14.60;99.90;;;;;;4972478;28;20019;-74
2022/09/24 05:34:32;;;;;;;49.80;27.38;;;14.50;99.90;;;;;;4971139;28;20090;-76
2022/09/24 05:37:00;;;;;;;45.03;26.23;;;14.60;99.90;;;;;;4974016;28;20027;-75
2022/09/24 05:39:27;;;;;;;41.20;26.33;;;14.50;99.90;;;;;;4969416;28;20102;-75
2022/09/24 05:41:55;;;;;;;47.60;27.63;;;14.60;99.90;;;;;;4975654;28;20436;-75
2022/09/24 05:44:21;;;;;;;49.25;26.33;;;14.60;99.90;;;;;;4970439;28;20089;-76
2022/09/24 05:46:48;;;;;;;46.15;25.92;;;14.60;99.90;;;;;;4967101;28;20031;-74
2022/09/24 05:49:13;;;;;;;40.42;23.70;;;14.60;99.90;;;;;;4964090;28;20059;-73
2022/09/24 05:51:44;;;;;;;41.65;25.15;;;14.50;99.90;;;;;;4960730;28;20050;-74
2022/09/24 05:54:10;;;;;;;42.13;25.17;;;14.50;99.90;;;;;;4962631;28;20708;-74
2022/09/24 05:56:38;;;;;;;44.03;24.98;;;14.60;99.90;;;;;;4962487;28;20106;-74
2022/09/24 05:59:06;;;;;;;46.28;24.88;;;14.50;99.90;;;;;;4962742;28;20035;-74
2022/09/24 06:01:32;;;;;;;44.45;25.42;;;14.50;99.90;;;;;;4965276;28;20023;-74
2022/09/24 06:04:00;;;;;;;39.63;23.33;;;14.50;99.90;;;;;;4967179;28;20086;-74
2022/09/24 06:06:26;;;;;;;38.72;23.02;;;14.50;99.90;;;;;;4963263;28;20062;-74
2022/09/24 06:08:52;;;;;;;40.50;24.10;;;14.50;99.90;;;;;;4962183;28;20027;-73
2022/09/24 06:11:21;;;;;;;41.60;23.60;;;14.60;99.90;;;;;;4964669;28;20098;-74
2022/09/24 06:13:47;;;;;;;42.55;23.00;;;14.50;99.90;;;;;;4960828;28;20033;-74
2022/09/24 06:16:13;;;;;;;42.90;23.75;;;14.70;99.90;;;;;;4965202;28;20455;-73
2022/09/24 06:18:43;;;;;;;38.80;23.33;;;14.70;99.90;;;;;;4967106;28;20023;-74
2022/09/24 06:21:11;;;;;;;37.60;22.95;;;14.70;99.90;;;;;;4964444;28;20027;-73
2022/09/24 06:23:41;;;;;;;36.97;22.65;;;14.70;99.90;;;;;;4964502;28;20050;-74
2022/09/24 06:26:10;;;;;;;34.35;20.63;;;14.70;99.90;;;;;;4965350;28;20404;-74
2022/09/24 06:28:39;;;;;;;34.85;21.80;;;14.70;99.90;;;;;;4962292;28;20029;-73
2022/09/24 06:31:06;;;;;;;36.53;20.48;;;14.70;99.90;;;;;;4965168;28;20055;-74
2022/09/24 06:33:34;;;;;;;36.58;21.40;;;14.70;99.90;;;;;;4979987;28;20027;-73
2022/09/24 06:36:04;;;;;;;37.67;22.55;;;14.70;99.90;;;;;;4959949;28;20035;-74
2022/09/24 06:38:30;;;;;;;38.45;21.35;;;14.80;99.90;;;;;;4961514;28;20026;-73
2022/09/24 06:41:06;;;;;;;35.13;19.70;;;14.90;99.90;;;;;;4968944;28;20035;-73
2022/09/24 06:43:32;;;;;;;34.08;21.70;;;14.90;99.90;;;;;;4961204;28;20026;-74
2022/09/24 06:45:59;;;;;;;37.08;20.77;;;15.00;99.90;;;;;;4962404;28;20038;-73
2022/09/24 06:48:27;;;;;;;40.42;21.85;;;14.90;99.90;;;;;;4969718;28;20377;-73
2022/09/24 06:50:53;;;;;;;35.35;21.42;;;15.00;99.90;;;;;;4965501;28;20023;-73
2022/09/24 06:53:19;;;;;;;38.60;21.85;;;15.10;99.90;;;;;;4962864;28;20368;-73
2022/09/24 06:55:45;;;;;;;37.75;20.83;;;15.20;99.90;;;;;;4964955;28;20027;-73
2022/09/24 06:58:15;;;;;;;40.70;21.75;;;15.20;99.90;;;;;;4961705;28;20026;-73
2022/09/24 07:00:42;;;;;;;34.90;21.92;;;15.10;99.90;;;;;;4967485;28;20027;-74
2022/09/24 07:03:14;;;;;;;39.10;21.48;;;15.20;99.90;;;;;;4961602;28;20090;-70
2022/09/24 07:05:40;;;;;;;39.28;21.20;;;15.30;99.90;;;;;;4964760;28;20022;-73
2022/09/24 07:08:05;;;;;;;36.20;21.17;;;15.30;99.90;;;;;;4959663;28;20372;-75
2022/09/24 07:10:31;;;;;;;38.83;21.25;;;15.40;99.90;;;;;;4962759;28;20022;-73
2022/09/24 07:12:56;;;;;;;34.17;20.77;;;15.30;99.90;;;;;;4964544;28;20015;-73
2022/09/24 07:15:22;;;;;;;38.35;21.20;;;15.40;99.90;;;;;;4967224;28;20030;-73
2022/09/24 07:17:53;;;;;;;37.10;20.45;;;15.50;99.90;;;;;;4964050;28;20023;-73
2022/09/24 07:20:19;;;;;;;39.50;21.60;;;15.40;99.90;;;;;;4960149;28;20738;-73
2022/09/24 07:22:46;;;;;;;37.97;19.40;;;15.40;99.90;;;;;;4964546;28;20074;-73
2022/09/24 07:25:14;;;;;;;37.38;20.23;;;15.20;99.90;;;;;;4963062;28;20466;-74
2022/09/24 07:27:40;;;;;;;39.22;20.70;;;15.30;99.90;;;;;;4961014;28;20527;-73
2022/09/24 07:30:08;;;;;;;34.95;19.63;;;15.40;99.90;;;;;;4962091;28;20039;-75
2022/09/24 07:32:34;;;;;;;39.03;19.33;;;15.20;99.90;;;;;;4968692;28;20479;-73
2022/09/24 07:34:59;;;;;;;40.50;20.38;;;15.20;99.90;;;;;;4964120;28;20028;-73
2022/09/24 07:37:25;;;;;;;38.28;22.05;;;15.40;99.90;;;;;;4964369;28;20029;-74
2022/09/24 07:39:51;;;;;;;45.10;24.20;;;15.40;99.90;;;;;;4961096;28;20047;-72
2022/09/24 07:42:20;;;;;;;39.55;20.33;;;15.40;99.90;;;;;;4958902;28;20038;-73
2022/09/24 07:44:47;;;;;;;35.70;20.80;;;15.40;99.90;;;;;;4961990;28;20039;-74
2022/09/24 07:47:14;;;;;;;39.97;21.17;;;15.50;99.90;;;;;;4961416;28;20035;-74
2022/09/24 07:49:41;;;;;;;36.75;20.45;;;15.70;99.90;;;;;;4959955;28;20027;-74
2022/09/24 07:52:07;;;;;;;40.65;21.50;;;15.60;99.90;;;;;;4963400;28;20061;-74
2022/09/24 07:54:32;;;;;;;36.50;20.85;;;15.60;99.90;;;;;;4962244;28;20054;-74
2022/09/24 07:57:01;;;;;;;38.08;21.17;;;15.70;99.90;;;;;;4966590;28;20057;-74
2022/09/24 07:59:31;;;;;;;36.58;21.75;;;15.80;99.90;;;;;;4964480;28;20448;-74
2022/09/24 08:01:59;;;;;;;41.33;21.05;;;15.80;99.90;;;;;;4969607;28;20093;-74
2022/09/24 08:04:24;;;;;;;42.80;21.10;;;15.90;99.90;;;;;;4963968;28;20109;-76
2022/09/24 08:06:50;;;;;;;34.42;20.15;;;15.80;99.90;;;;;;4962883;28;20440;-71
2022/09/24 08:09:20;;;;;;;45.28;24.52;;;15.70;99.90;;;;;;4958319;28;20122;-70
2022/09/24 08:11:48;;;;;;;39.63;20.63;;;15.80;99.90;;;;;;4957897;28;20051;-74
2022/09/24 08:14:14;;;;;;;34.88;18.67;;;15.90;99.90;;;;;;4962165;28;20011;-74
2022/09/24 08:16:40;;;;;;;39.83;22.20;;;15.90;99.90;;;;;;4966249;28;20030;-73
2022/09/24 08:19:05;;;;;;;40.15;21.25;;;16.00;99.90;;;;;;4965084;28;20046;-73
2022/09/24 08:21:32;;;;;;;32.30;19.15;;;16.00;99.90;;;;;;4957751;28;20035;-73
2022/09/24 08:23:58;;;;;;;31.35;19.23;;;15.80;99.90;;;;;;4963520;28;20024;-74
2022/09/24 08:26:24;;;;;;;32.05;19.17;;;16.10;99.90;;;;;;4961859;28;20070;-73
2022/09/24 08:28:51;;;;;;;30.48;19.80;;;15.90;99.90;;;;;;4966807;28;20093;-73
2022/09/24 08:31:18;;;;;;;30.67;18.70;;;16.10;99.90;;;;;;4962742;28;20027;-74
2022/09/24 08:33:45;;;;;;;33.45;18.42;;;16.20;99.90;;;;;;4960580;28;20016;-76
2022/09/24 08:36:11;;;;;;;31.98;17.13;;;16.20;99.90;;;;;;4963525;28;20030;-75
2022/09/24 08:38:37;;;;;;;29.45;18.48;;;16.40;99.90;;;;;;4963691;28;20803;-74
2022/09/24 08:41:22;;;;;;;29.23;17.45;;;16.40;99.90;;;;;;4965228;28;20026;-73
2022/09/24 08:44:11;;;;;;;30.98;18.20;;;16.50;99.90;;;;;;4961464;28;21656;-73
2022/09/24 08:47:22;;;;;;;29.52;17.92;;;16.60;99.90;;;;;;4958130;28;20054;-74
2022/09/24 08:50:00;;;;;;;30.63;17.00;;;16.70;99.90;;;;;;4963679;28;20030;-73
2022/09/24 08:52:57;;;;;;;30.15;16.23;;;16.80;99.90;;;;;;4958306;28;20108;-74
2022/09/24 08:55:31;;;;;;;28.13;16.10;;;16.90;99.90;;;;;;4963564;28;20213;-74
2022/09/24 08:58:22;;;;;;;25.20;15.60;;;16.90;99.90;;;;;;4959719;28;20027;-75
2022/09/24 09:01:09;;;;;;;27.30;15.70;;;17.00;99.90;;;;;;4964918;28;20079;-74
2022/09/24 09:03:38;;;;;;;24.48;15.38;;;17.20;99.90;;;;;;4961225;28;20035;-74
2022/09/24 09:06:09;;;;;;;29.65;15.77;;;17.20;99.90;;;;;;4962336;28;20027;-74
2022/09/24 09:08:37;;;;;;;25.98;15.18;;;17.10;99.90;;;;;;4967173;28;20457;-74
2022/09/24 09:11:08;;;;;;;28.50;16.25;;;17.10;99.90;;;;;;4963885;28;20035;-74
2022/09/24 09:13:44;;;;;;;21.90;13.60;;;17.10;99.90;;;;;;4966229;28;20022;-76
2022/09/24 09:16:25;;;;;;;27.58;14.35;;;17.10;99.90;;;;;;4966474;28;20035;-74
2022/09/24 09:18:54;;;;;;;24.38;14.85;;;17.10;99.90;;;;;;4961631;28;20019;-74
2022/09/24 09:21:40;;;;;;;22.58;13.43;;;16.80;99.90;;;;;;4964314;28;20106;-75
2022/09/24 09:24:16;;;;;;;24.30;14.00;;;16.90;99.90;;;;;;4962563;28;20748;-74
2022/09/24 09:26:49;;;;;;;18.58;12.98;;;17.00;99.90;;;;;;4961096;28;20028;-73
2022/09/24 09:29:16;;;;;;;20.27;13.27;;;17.00;99.90;;;;;;4961839;28;20031;-75
2022/09/24 09:31:47;;;;;;;21.05;12.85;;;16.90;99.90;;;;;;4965252;28;20031;-75
2022/09/24 09:34:20;;;;;;;19.17;12.98;;;17.00;99.90;;;;;;4964056;28;20089;-76
2022/09/24 09:36:52;;;;;;;15.25;10.23;;;17.00;99.90;;;;;;4965383;28;20110;-74
2022/09/24 09:39:40;;;;;;;15.50;10.52;;;16.90;99.90;;;;;;4962610;28;20027;-74
2022/09/24 09:42:23;;;;;;;15.40;11.23;;;16.90;99.90;;;;;;4965173;28;20106;-74
2022/09/24 09:44:51;;;;;;;17.23;12.05;;;16.90;99.90;;;;;;4962061;28;20341;-74
2022/09/24 09:47:36;;;;;;;16.27;10.73;;;17.00;99.90;;;;;;4963569;28;20093;-74
2022/09/24 09:50:29;;;;;;;15.30;9.48;;;17.00;99.90;;;;;;4976737;28;20329;-73
2022/09/24 09:52:57;;;;;;;17.13;9.82;;;17.20;99.90;;;;;;4965052;28;20031;-74
2022/09/24 09:55:26;;;;;;;18.15;10.05;;;17.20;99.90;;;;;;4963907;28;20058;-74
2022/09/24 09:57:57;;;;;;;14.82;9.43;;;17.10;99.90;;;;;;4962542;28;20038;-74
2022/09/24 10:00:33;;;;;;;14.05;9.07;;;17.10;99.90;;;;;;4981091;28;20079;-73
2022/09/24 10:03:04;;;;;;;14.85;8.82;;;17.10;99.90;;;;;;4963657;28;20042;-73
2022/09/24 10:05:30;;;;;;;13.68;8.93;;;17.10;99.90;;;;;;4966626;28;20019;-74
2022/09/24 10:07:58;;;;;;;15.40;9.57;;;17.10;99.90;;;;;;4961811;28;20042;-75
2022/09/24 10:10:30;;;;;;;14.02;9.40;;;17.10;99.90;;;;;;4970661;28;20060;-74
2022/09/24 10:13:07;;;;;;;11.43;8.77;;;17.10;99.90;;;;;;4967179;28;20300;-73
2022/09/24 10:15:38;;;;;;;12.07;9.20;;;17.10;99.90;;;;;;4966564;28;20097;-73
2022/09/24 10:18:04;;;;;;;12.43;9.05;;;17.00;99.90;;;;;;4962056;28;20027;-74
2022/09/24 10:20:33;;;;;;;12.75;9.43;;;17.20;99.90;;;;;;4964271;28;20096;-75
2022/09/24 10:23:05;;;;;;;15.38;9.82;;;17.10;99.90;;;;;;4962810;28;20062;-74
2022/09/24 10:25:35;;;;;;;13.48;9.60;;;17.10;99.90;;;;;;4962942;28;20081;-73
2022/09/24 10:31:02;;;;;;;16.85;9.80;;;17.30;99.90;;;;;;4967560;28;20170;-75
2022/09/24 10:33:41;;;;;;;11.95;8.65;;;17.40;99.90;;;;;;4964006;28;20058;-74
2022/09/24 10:36:21;;;;;;;15.65;10.02;;;17.40;99.90;;;;;;4966471;28;20059;-73
2022/09/24 10:39:00;;;;;;;13.95;9.98;;;17.40;99.90;;;;;;4971411;28;20088;-74
2022/09/24 10:41:28;;;;;;;12.55;8.85;;;17.30;99.90;;;;;;4966913;28;20027;-77
2022/09/24 10:43:56;;;;;;;14.10;8.10;;;17.20;99.90;;;;;;4966915;28;20019;-74
2022/09/24 10:47:03;;;;;;;12.23;9.30;;;17.20;99.90;;;;;;4965153;28;20031;-73
2022/09/24 10:50:06;;;;;;;12.35;8.80;;;17.40;99.90;;;;;;4964491;28;20034;-73
2022/09/24 10:52:56;;;;;;;13.07;8.80;;;17.60;99.90;;;;;;4961051;28;20023;-74
2022/09/24 10:55:40;;;;;;;15.75;9.30;;;17.60;99.90;;;;;;4962059;28;20110;-74
2022/09/24 10:58:14;;;;;;;14.07;9.15;;;17.70;99.90;;;;;;4965247;28;20118;-73
2022/09/24 11:00:48;;;;;;;12.52;9.35;;;17.60;99.90;;;;;;4965980;28;20273;-73
2022/09/24 11:03:41;;;;;;;15.02;10.05;;;17.70;99.90;;;;;;4962838;28;20027;-73
2022/09/24 11:06:42;;;;;;;13.02;9.52;;;18.00;99.90;;;;;;4967511;28;20019;-73
2022/09/24 11:09:15;;;;;;;11.10;8.50;;;18.00;99.90;;;;;;4924421;28;20081;-73
2022/09/24 11:11:49;;;;;;;15.38;9.27;;;18.10;99.90;;;;;;4981152;28;20030;-74
2022/09/24 11:14:55;;;;;;;13.07;9.25;;;18.20;99.90;;;;;;4962756;28;20027;-73
2022/09/24 11:17:25;;;;;;;15.80;8.88;;;18.40;99.90;;;;;;4945157;28;20114;-74
2022/09/24 11:20:10;;;;;;;15.05;9.05;;;18.40;99.90;;;;;;4966243;28;20027;-73
2022/09/24 11:22:55;;;;;;;12.60;8.38;;;18.50;99.90;;;;;;4959389;28;20170;-73
2022/09/24 11:25:48;;;;;;;14.13;9.10;;;18.70;99.90;;;;;;4963070;28;20070;-73
2022/09/24 11:28:32;;;;;;;12.15;8.75;;;18.60;99.90;;;;;;4960338;28;20492;-74
2022/09/24 11:31:18;;;;;;;12.55;9.02;;;18.50;99.90;;;;;;4964327;28;20081;-74
2022/09/24 11:34:15;;;;;;;11.32;8.55;;;18.30;99.90;;;;;;4959941;28;20149;-73
2022/09/24 11:37:04;;;;;;;12.82;9.15;;;18.30;99.90;;;;;;4963605;28;20034;-74
2022/09/24 11:39:59;;;;;;;10.68;8.73;;;18.40;99.90;;;;;;4966946;28;20046;-73
2022/09/24 11:42:33;;;;;;;14.63;9.70;;;18.70;99.90;;;;;;4958798;28;20550;-72
2022/09/24 11:45:01;;;;;;;11.65;9.27;;;18.80;99.90;;;;;;4962899;28;20054;-75
2022/09/24 11:47:59;;;;;;;14.85;9.02;;;19.20;99.90;;;;;;4963342;28;20039;-74
2022/09/24 11:50:50;;;;;;;11.75;9.02;;;19.30;99.90;;;;;;4958062;28;20062;-74
2022/09/24 11:53:22;;;;;;;15.32;8.40;;;19.30;99.90;;;;;;4964128;28;20022;-74
2022/09/24 11:55:53;;;;;;;13.13;8.32;;;19.30;99.90;;;;;;4959632;28;20086;-74
2022/09/24 11:58:30;;;;;;;12.35;8.38;;;19.30;99.90;;;;;;4975027;28;20464;-74
2022/09/24 12:01:05;;;;;;;9.65;7.93;;;19.20;99.90;;;;;;4963496;28;20035;-74
2022/09/24 12:03:41;;;;;;;11.48;8.65;;;19.20;99.90;;;;;;4965146;28;20756;-74
2022/09/24 12:06:12;;;;;;;10.60;7.45;;;19.00;99.90;;;;;;4966105;28;20057;-74
2022/09/24 12:08:45;;;;;;;11.68;7.70;;;18.90;99.90;;;;;;4963344;28;20030;-74
2022/09/24 12:11:27;;;;;;;11.57;7.85;;;19.10;99.90;;;;;;4946810;28;20051;-74
2022/09/24 12:14:15;;;;;;;11.10;8.23;;;19.20;99.90;;;;;;4964267;28;20122;-74
2022/09/24 12:16:44;;;;;;;9.45;7.65;;;19.40;99.90;;;;;;4963926;28;20039;-74
2022/09/24 12:19:34;;;;;;;11.95;7.50;;;19.60;99.90;;;;;;4967246;28;20948;-74
2022/09/24 12:22:02;;;;;;;12.00;8.40;;;19.90;99.90;;;;;;4959516;28;20652;-73
2022/09/24 12:24:59;;;;;;;11.15;8.30;;;20.10;99.90;;;;;;4962077;28;20018;-75
2022/09/24 12:27:36;;;;;;;13.35;8.60;;;19.90;99.90;;;;;;4954113;28;20035;-74
2022/09/24 12:33:28;;;;;;;10.43;8.38;;;19.70;99.90;;;;;;4963864;28;20038;-74
2022/09/24 12:36:18;;;;;;;13.27;8.15;;;19.60;99.90;;;;;;4961038;28;20456;-74
2022/09/24 12:38:50;;;;;;;12.73;8.15;;;19.60;99.90;;;;;;4942107;28;20111;-74
2022/09/24 12:41:18;;;;;;;10.48;8.75;;;19.70;99.90;;;;;;4966975;28;20460;-74
2022/09/24 12:43:56;;;;;;;10.98;8.85;;;19.60;99.90;;;;;;4958817;28;20031;-71
2022/09/24 12:46:27;;;;;;;11.13;8.10;;;19.50;99.90;;;;;;4960208;28;20094;-74
2022/09/24 12:49:00;;;;;;;12.02;8.25;;;19.50;99.90;;;;;;4961088;28;20035;-74
2022/09/24 12:51:35;;;;;;;11.90;8.85;;;19.60;99.90;;;;;;4961186;28;20038;-74
2022/09/24 12:54:23;;;;;;;11.52;8.88;;;19.80;99.90;;;;;;4963172;28;20364;-74
2022/09/24 12:56:51;;;;;;;11.40;8.07;;;20.00;99.90;;;;;;4980104;28;20015;-74
2022/09/24 12:59:27;;;;;;;11.43;8.55;;;20.00;99.90;;;;;;4963208;28;20046;-73
2022/09/24 13:01:53;;;;;;;12.75;9.30;;;19.90;99.90;;;;;;4959884;28;20033;-76
2022/09/24 13:04:18;;;;;;;13.07;8.20;;;20.00;99.90;;;;;;4964476;28;21232;-74